Esmond, North Dakota
Current Conditions -  °F | °C
As of 6:15 PM on Thursday 27 Nov 2014 (Local Time) from K5H4 Reporting Station
Light Snow Light Snow  
Wind Chill: -12°   Ceiling: 1300
Heat Index:   Visibility: 3mi
Dew Point:   Wind: 17mph
Humidity: 85%   Direction: 110°ESE
Pressure: 30.03"   Gusts: NA
Location:  48.04°N, 99.76°W
Report Text: K5H4 280015Z AUTO 11015KT 3SM -SN SCT003 BKN013 OVC027 M14/M16 A3003 RMK AO2
Loading
Personal Weather Stations






























Interactive Weather Map New forecast layout! Learn more

10-Day Weather Forecast

Advertisements
Track Severe Weather on mobile